Flight Track Log - Related Links

Times and Time Zones

All times are in EDT time to prevent confusion due to time zone crossing. See the UAL1659 flight status page for this flight to view local times or setup timezone preferences in your user account.

Time Position Orientation Groundspeed Altitude Reporting Facility
EDT Latitude Longitude Course Direction KTS MPH feet Rate Location/Type
Thu 10:08:25 AM 29.9537 -95.3418 335° Northwest 183 211 700  Level FlightAware ADS-B
Thu 10:08:31 AM 29.9484 -95.3409 172° South 183 211 1,000 2,400 Climbing FlightAware ADS-B
Thu 10:08:35 AM 29.9451 -95.3413 186° South 182 209 1,100 2,250 Climbing FlightAware ADS-B
Thu 10:08:39 AM 29.9419 -95.3423 195° South 182 209 1,300 2,250 Climbing FlightAware ADS-B
Thu 10:08:43 AM 29.9389 -95.3439 205° Southwest 185 213 1,400 1,333 Climbing FlightAware ADS-B
Thu 10:08:48 AM 29.9354 -95.3468 216° Southwest 192 221 1,500 1,333 Climbing FlightAware ADS-B
Thu 10:08:52 AM 29.9327 -95.3501 227° Southwest 199 229 1,600 750 Climbing FlightAware ADS-B
Thu 10:08:56 AM 29.9306 -95.3538 237° Southwest 204 235 1,600 857 Level FlightAware ADS-B
Thu 10:08:59 AM 29.9294 -95.3570 247° West 210 242 1,700 2,250 Climbing FlightAware ADS-B
Thu 10:09:04 AM 29.9281 -95.3629 256° West 216 249 1,900 2,000 Climbing FlightAware ADS-B
Thu 10:09:08 AM 29.9280 -95.3679 269° West 221 254 2,000 1,500 Climbing FlightAware ADS-B
Thu 10:09:12 AM 29.9284 -95.3716 277° West 227 261 2,100 1,714 Climbing FlightAware ADS-B
Thu 10:09:15 AM 29.9291 -95.3752 283° West 230 265 2,200 2,571 Climbing FlightAware ADS-B
Thu 10:09:19 AM 29.9309 -95.3798 294° West 233 268 2,400 2,250 Climbing FlightAware ADS-B
Thu 10:09:23 AM 29.9332 -95.3840 302° West 237 273 2,500 2,250 Climbing FlightAware ADS-B
Thu 10:09:27 AM 29.9363 -95.3879 313° West 239 275 2,700 2,667 Climbing FlightAware ADS-B
Thu 10:09:32 AM 29.9408 -95.3919 322° Northwest 241 277 2,900 2,000 Climbing FlightAware ADS-B
Thu 10:09:36 AM 29.9447 -95.3943 332° Northwest 244 281 3,000 2,250 Climbing FlightAware ADS-B
Thu 10:09:40 AM 29.9494 -95.3962 341° North 246 283 3,200 2,571 Climbing FlightAware ADS-B
Thu 10:09:43 AM 29.9528 -95.3971 347° North 249 287 3,300 2,250 Climbing FlightAware ADS-B
Thu 10:09:48 AM 29.9585 -95.3981 351° North 254 292 3,500 1,846 Climbing FlightAware ADS-B
Thu 10:09:56 AM 29.9682 -95.3992 354° North 260 299 3,700 2,000 Climbing FlightAware ADS-B
Thu 10:10:12 AM 29.9877 -95.4013 355° North 272 313 4,300 2,690 Climbing FlightAware ADS-B
Thu 10:10:25 AM 30.0045 -95.4030 355° North 276 318 5,000 3,103 Climbing FlightAware ADS-B
Thu 10:10:41 AM 30.0243 -95.4057 353° North 278 320 5,800 2,769 Climbing FlightAware ADS-B
Thu 10:10:51 AM 30.0368 -95.4092 346° North 278 320 6,200 3,000 Climbing FlightAware ADS-B
Thu 10:10:55 AM 30.0419 -95.4111 342° North 278 320 6,500 3,600 Climbing FlightAware ADS-B
Thu 10:11:01 AM 30.0495 -95.4145 339° North 278 320 6,800 2,824 Climbing FlightAware ADS-B
Thu 10:11:12 AM 30.0629 -95.4213 336° Northwest 282 325 7,300 2,276 Climbing FlightAware ADS-B
Thu 10:11:30 AM 30.0845 -95.4319 337° Northwest 292 336 7,900 2,270 Climbing FlightAware ADS-B
Thu 10:11:49 AM 30.1088 -95.4438 337° Northwest 297 342 8,700 2,571 Climbing FlightAware ADS-B
Thu 10:12:05 AM 30.1290 -95.4536 337° Northwest 302 348 9,400 2,200 Climbing FlightAware ADS-B
Thu 10:12:49 AM 30.1867 -95.4816 337° Northwest 309 356 10,900 1,703 Climbing FlightAware ADS-B
Thu 10:13:19 AM 30.2307 -95.5031 337° Northwest 352 405 11,500 1,574 Climbing FlightAware ADS-B
Thu 10:13:50 AM 30.2775 -95.5259 337° Northwest 367 422 12,500 1,967 Climbing FlightAware ADS-B
Thu 10:14:20 AM 30.3262 -95.5499 337° Northwest 379 436 13,500 1,869 Climbing FlightAware ADS-B
Thu 10:14:51 AM 30.3761 -95.5743 337° Northwest 391 450 14,400 2,032 Climbing FlightAware ADS-B
Thu 10:15:22 AM 30.4296 -95.6005 337° Northwest 395 455 15,600 2,344 Climbing FlightAware ADS-B
Thu 10:15:55 AM 30.4845 -95.6272 337° Northwest 395 455 16,900 2,381 Climbing FlightAware ADS-B
Thu 10:16:25 AM 30.5358 -95.6523 337° Northwest 396 456 18,100 2,087 Climbing FlightAware ADS-B
Thu 10:16:41 AM 30.5620 -95.6656 336° Northwest 397 457 18,500 1,826 Climbing FlightAware ADS-B
Thu 10:17:11 AM 30.6131 -95.6934 335° Northwest 403 464 19,500 1,869 Climbing FlightAware ADS-B
Thu 10:17:42 AM 30.6657 -95.7219 335° Northwest 407 468 20,400 1,742 Climbing FlightAware ADS-B
Thu 10:18:13 AM 30.7180 -95.7499 335° Northwest 411 473 21,300 1,770 Climbing FlightAware ADS-B
Thu 10:18:43 AM 30.7707 -95.7781 335° Northwest 414 476 22,200 1,636 Climbing FlightAware ADS-B
Thu 10:19:19 AM 30.8351 -95.8125 335° Northwest 421 484 23,100 1,417 Climbing FlightAware ADS-B
Thu 10:19:55 AM 30.8974 -95.8460 335° Northwest 426 490 23,900 1,364 Climbing FlightAware ADS-B
Thu 10:20:25 AM 30.9517 -95.8751 335° Northwest 432 497 24,600 1,238 Climbing FlightAware ADS-B
Thu 10:20:58 AM 31.0125 -95.9079 335° Northwest 438 504 25,200 1,143 Climbing FlightAware ADS-B
Thu 10:21:28 AM 31.0691 -95.9385 335° Northwest 444 511 25,800 1,286 Climbing FlightAware ADS-B
Thu 10:21:54 AM 31.1174 -95.9643 335° Northwest 449 517 26,400 1,256 Climbing FlightAware ADS-B
Thu 10:22:54 AM 31.2380 -96.0124 342° North 460 529 27,600 1,152 Climbing FlightAware ADS-B
Thu 10:23:33 AM 31.3155 -96.0425 342° North 464 534 28,300 1,083 Climbing FlightAware ADS-B
Thu 10:24:06 AM 31.3838 -96.0691 342° North 465 535 28,900 1,273 Climbing FlightAware ADS-B
Thu 10:24:39 AM 31.4511 -96.0952 342° North 467 537 29,700 1,524 Climbing FlightAware ADS-B
Thu 10:25:09 AM 31.5131 -96.1192 342° North 459 528 30,500 1,475 Climbing FlightAware ADS-B
Thu 10:25:40 AM 31.5752 -96.1434 342° North 457 526 31,200 1,350 Climbing FlightAware ADS-B
Thu 10:26:29 AM 31.6731 -96.1817 342° North 453 521 32,300 1,275 Climbing FlightAware ADS-B
Thu 10:27:00 AM 31.7334 -96.2055 341° North 450 518 32,900 1,180 Climbing FlightAware ADS-B
Thu 10:27:30 AM 31.7933 -96.2290 342° North 445 512 33,500 1,082 Climbing FlightAware ADS-B
Thu 10:28:01 AM 31.8527 -96.2523 342° North 445 512 34,000 476 Climbing FlightAware ADS-B
Thu 10:28:33 AM 31.9156 -96.2790 340° North 440 506 34,000  Level FlightAware ADS-B
Thu 10:29:22 AM 31.9960 -96.3440 326° Northwest 427 491 34,000  Level FlightAware ADS-B
Thu 10:29:38 AM 32.0202 -96.3665 322° Northwest 428 493 34,000  Level FlightAware ADS-B
Thu 10:30:09 AM 32.0686 -96.4104 322° Northwest 428 493 34,000  Level FlightAware ADS-B
Thu 10:31:07 AM 32.1601 -96.4939 322° Northwest 426 490 34,000  Level FlightAware ADS-B
Thu 10:31:41 AM 32.2110 -96.5420 321° Northwest 424 488 34,000  Level FlightAware ADS-B
Thu 10:32:04 AM 32.2468 -96.5750 322° Northwest 425 489 34,000  Level FlightAware ADS-B
Thu 10:32:49 AM 32.3160 -96.6400 322° Northwest 424 488 34,000  Level FlightAware ADS-B
Thu 10:33:27 AM 32.3750 -96.6950 322° Northwest 425 489 34,000  Level FlightAware ADS-B
Thu 10:33:59 AM 32.4250 -96.7410 322° Northwest 426 490 34,000  Level FlightAware ADS-B
Thu 10:34:37 AM 32.4820 -96.7960 321° Northwest 427 491 34,000  Level FlightAware ADS-B
Thu 10:35:09 AM 32.5320 -96.8420 322° Northwest 426 490 34,000  Level FlightAware ADS-B
Thu 10:35:46 AM 32.5850 -96.8920 322° Northwest 426 490 34,000  Level FlightAware ADS-B
Thu 10:36:21 AM 32.6450 -96.9480 322° Northwest 427 491 34,000  Level FlightAware ADS-B
Thu 10:36:55 AM 32.6960 -96.9970 321° Northwest 427 491 34,000  Level FlightAware ADS-B
Thu 10:37:31 AM 32.7520 -97.0500 321° Northwest 427 491 34,000  Level FlightAware ADS-B
Thu 10:38:08 AM 32.8080 -97.1030 322° Northwest 428 493 34,000  Level FlightAware ADS-B
Thu 10:38:41 AM 32.8600 -97.1520 322° Northwest 428 493 34,000  Level FlightAware ADS-B
Thu 10:39:12 AM 32.9060 -97.1960 321° Northwest 428 493 34,000  Level FlightAware ADS-B
Thu 10:39:51 AM 32.9690 -97.2550 322° Northwest 428 493 34,000  Level FlightAware ADS-B
Thu 10:40:27 AM 33.0240 -97.3080 321° Northwest 428 493 34,000  Level FlightAware ADS-B
Thu 10:40:59 AM 33.0740 -97.3560 321° Northwest 429 494 34,000  Level FlightAware ADS-B
Thu 10:41:35 AM 33.1300 -97.4100 321° Northwest 429 494 34,000  Level FlightAware ADS-B
Thu 10:42:07 AM 33.1790 -97.4570 321° Northwest 430 495 34,000  Level FlightAware ADS-B
Thu 10:42:51 AM 33.2470 -97.5220 321° Northwest 431 496 34,000  Level FlightAware ADS-B
Thu 10:43:29 AM 33.3070 -97.5790 322° Northwest 432 497 34,000  Level FlightAware ADS-B
Thu 10:44:02 AM 33.3550 -97.6260 321° Northwest 432 497 34,000  Level FlightAware ADS-B
Thu 10:44:46 AM 33.4190 -97.6880 321° Northwest 432 497 34,000  Level FlightAware ADS-B
Thu 10:45:21 AM 33.4790 -97.7460 321° Northwest 432 497 34,000  Level FlightAware ADS-B
Thu 10:45:50 AM 33.5220 -97.7870 322° Northwest 432 497 34,000  Level FlightAware ADS-B
Thu 10:46:36 AM 33.5950 -97.8580 321° Northwest 432 497 34,000  Level FlightAware ADS-B
Thu 10:47:11 AM 33.6510 -97.9120 321° Northwest 432 497 34,000  Level FlightAware ADS-B
Thu 10:47:48 AM 33.7070 -97.9670 321° Northwest 432 497 34,000  Level FlightAware ADS-B
Thu 10:48:24 AM 33.7650 -98.0240 321° Northwest 433 498 34,000  Level FlightAware ADS-B
Thu 10:48:55 AM 33.8110 -98.0690 321° Northwest 433 498 34,000  Level FlightAware ADS-B
Thu 10:49:40 AM 33.8830 -98.1400 321° Northwest 434 499 34,000  Level FlightAware ADS-B
Thu 10:50:13 AM 33.9350 -98.1900 321° Northwest 435 501 34,000  Level FlightAware ADS-B
Thu 10:50:46 AM 33.9860 -98.2400 321° Northwest 435 501 34,000  Level FlightAware ADS-B
Thu 10:51:22 AM 34.0420 -98.2960 320° Northwest 435 501 34,000  Level FlightAware ADS-B
Thu 10:51:55 AM 34.0940 -98.3470 321° Northwest 436 502 34,000  Level FlightAware ADS-B
Thu 10:52:33 AM 34.1540 -98.4060 321° Northwest 437 503 34,000  Level FlightAware ADS-B
Thu 10:53:10 AM 34.2120 -98.4630 321° Northwest 436 502 34,000  Level FlightAware ADS-B
Thu 10:53:43 AM 34.2630 -98.5140 320° Northwest 435 501 34,000  Level FlightAware ADS-B
Thu 10:54:20 AM 34.3200 -98.5710 320° Northwest 434 499 34,000  Level FlightAware ADS-B
Thu 10:54:53 AM 34.3700 -98.6210 320° Northwest 434 499 34,000  Level FlightAware ADS-B
Thu 10:55:29 AM 34.4280 -98.6780 321° Northwest 434 499 34,000  Level FlightAware ADS-B
Thu 10:56:02 AM 34.4750 -98.7250 321° Northwest 434 499 34,000  Level FlightAware ADS-B
Thu 10:56:38 AM 34.5330 -98.7830 321° Northwest 434 499 34,000  Level FlightAware ADS-B
Thu 10:57:14 AM 34.5890 -98.8390 321° Northwest 435 501 34,000  Level FlightAware ADS-B
Thu 10:57:48 AM 34.6430 -98.8930 321° Northwest 436 502 34,000  Level FlightAware ADS-B
Thu 10:58:24 AM 34.6990 -98.9490 321° Northwest 438 504 34,000  Level FlightAware ADS-B
Thu 10:59:00 AM 34.7540 -99.0050 320° Northwest 438 504 34,000  Level FlightAware ADS-B
Thu 10:59:32 AM 34.8060 -99.0570 321° Northwest 438 504 34,000  Level FlightAware ADS-B
Thu 11:00:08 AM 34.8610 -99.1130 320° Northwest 438 504 34,000  Level FlightAware ADS-B
Thu 11:00:41 AM 34.9120 -99.1650 320° Northwest 438 504 34,000  Level FlightAware ADS-B
Thu 11:01:13 AM 34.9630 -99.2160 321° Northwest 438 504 34,000  Level FlightAware ADS-B
Thu 11:01:53 AM 35.0230 -99.2770 320° Northwest 437 503 34,000  Level FlightAware ADS-B
Thu 11:02:29 AM 35.0800 -99.3360 320° Northwest 438 504 34,000 329 Level FlightAware ADS-B
Thu 11:03:06 AM 35.1380 -99.3940 321° Northwest 437 503 34,400 696 Climbing FlightAware ADS-B
Thu 11:03:38 AM 35.1880 -99.4450 320° Northwest 437 503 34,800 783 Climbing FlightAware ADS-B
Thu 11:04:15 AM 35.2460 -99.5040 320° Northwest 437 503 35,300 943 Climbing FlightAware ADS-B
Thu 11:04:48 AM 35.2970 -99.5560 320° Northwest 433 498 35,900 600 Climbing FlightAware ADS-B
Thu 11:05:25 AM 35.3530 -99.6140 320° Northwest 433 498 36,000 83 Climbing FlightAware ADS-B
Thu 11:06:00 AM 35.4030 -99.6660 320° Northwest 434 499 36,000  Level FlightAware ADS-B
Thu 11:06:30 AM 35.4510 -99.7150 320° Northwest 434 499 36,000  Level FlightAware ADS-B
Thu 11:07:07 AM 35.5060 -99.7710 320° Northwest 432 497 36,000  Level FlightAware ADS-B
Thu 11:07:44 AM 35.5620 -99.8300 319° Northwest 432 497 36,000  Level FlightAware ADS-B
Thu 11:08:16 AM 35.6120 -99.8820 320° Northwest 432 497 36,000  Level FlightAware ADS-B
Thu 11:08:51 AM 35.6680 -99.9400 320° Northwest 433 498 36,000  Level FlightAware ADS-B
Thu 11:09:27 AM 35.7230 -99.9970 320° Northwest 437 503 36,000  Level FlightAware ADS-B
Thu 11:10:03 AM 35.7750 -100.0520 319° Northwest 438 504 36,000  Level FlightAware ADS-B
Thu 11:10:39 AM 35.8350 -100.1140 320° Northwest 439 505 36,000  Level FlightAware ADS-B
Thu 11:11:13 AM 35.8880 -100.1690 320° Northwest 439 505 36,000  Level FlightAware ADS-B
Thu 11:11:41 AM 35.9310 -100.2150 319° Northwest 439 505 36,000  Level FlightAware ADS-B
Thu 11:12:39 AM 36.0200 -100.3080 320° Northwest 434 499 36,000  Level FlightAware ADS-B
Thu 11:13:15 AM 36.0730 -100.3630 320° Northwest 433 498 36,000  Level FlightAware ADS-B
Thu 11:13:46 AM 36.1230 -100.4160 319° Northwest 431 496 36,000  Level FlightAware ADS-B
Thu 11:14:24 AM 36.1770 -100.4730 320° Northwest 431 496 36,000  Level FlightAware ADS-B
Thu 11:15:00 AM 36.2340 -100.5330 320° Northwest 430 495 36,000  Level FlightAware ADS-B
Thu 11:15:32 AM 36.2830 -100.5850 319° Northwest 429 494 36,000  Level FlightAware ADS-B
Thu 11:16:06 AM 36.3350 -100.6400 320° Northwest 429 494 36,000  Level FlightAware ADS-B
Thu 11:16:43 AM 36.3900 -100.6990 319° Northwest 427 491 36,000  Level FlightAware ADS-B
Thu 11:17:20 AM 36.4450 -100.7570 320° Northwest 428 493 36,000  Level FlightAware ADS-B
Thu 11:17:50 AM 36.4900 -100.8050 319° Northwest 428 493 36,000  Level FlightAware ADS-B
Thu 11:18:28 AM 36.5470 -100.8670 319° Northwest 428 493 36,000  Level FlightAware ADS-B
Thu 11:19:04 AM 36.6020 -100.9260 319° Northwest 429 494 36,000  Level FlightAware ADS-B
Thu 11:19:54 AM 36.6690 -100.9980 319° Northwest 431 496 36,000  Level FlightAware ADS-B
Thu 11:20:29 AM 36.7280 -101.0610 319° Northwest 433 498 36,000  Level FlightAware ADS-B
Thu 11:21:08 AM 36.7880 -101.1260 319° Northwest 434 499 36,000  Level FlightAware ADS-B
Thu 11:21:45 AM 36.8440 -101.1860 319° Northwest 433 498 36,000  Level FlightAware ADS-B
Thu 11:22:19 AM 36.8960 -101.2430 319° Northwest 434 499 36,000  Level FlightAware ADS-B
Thu 11:22:52 AM 36.9460 -101.2970 319° Northwest 435 501 36,000  Level FlightAware ADS-B
Thu 11:23:27 AM 37.0000 -101.3550 319° Northwest 435 501 36,000  Level FlightAware ADS-B
Thu 11:24:03 AM 37.0550 -101.4150 319° Northwest 435 501 36,000  Level FlightAware ADS-B
Thu 11:24:38 AM 37.1080 -101.4730 319° Northwest 435 501 36,000  Level FlightAware ADS-B
Thu 11:25:11 AM 37.1570 -101.5270 319° Northwest 435 501 36,000  Level FlightAware ADS-B
Thu 11:25:50 AM 37.2160 -101.5920 319° Northwest 437 503 36,000  Level FlightAware ADS-B
Thu 11:26:20 AM 37.2630 -101.6430 319° Northwest 437 503 36,000  Level FlightAware ADS-B
Thu 11:26:58 AM 37.3200 -101.7060 319° Northwest 437 503 36,000  Level FlightAware ADS-B
Thu 11:27:35 AM 37.3750 -101.7670 319° Northwest 437 503 36,000  Level FlightAware ADS-B
Thu 11:28:09 AM 37.4280 -101.8250 319° Northwest 438 504 36,000  Level FlightAware ADS-B
Thu 11:28:42 AM 37.4780 -101.8800 319° Northwest 439 505 36,000  Level FlightAware ADS-B
Thu 11:29:17 AM 37.5300 -101.9380 319° Northwest 439 505 36,000  Level FlightAware ADS-B
Thu 11:30:08 AM 37.6090 -102.0260 319° Northwest 439 505 36,000  Level FlightAware ADS-B
Thu 11:30:41 AM 37.6580 -102.0800 319° Northwest 439 505 36,000  Level FlightAware ADS-B
Thu 11:31:18 AM 37.7150 -102.1440 318° Northwest 440 506 36,000  Level FlightAware ADS-B
Thu 11:31:59 AM 37.7750 -102.2120 318° Northwest 439 505 36,000  Level FlightAware ADS-B
Thu 11:32:36 AM 37.8350 -102.2780 319° Northwest 440 506 36,000  Level FlightAware ADS-B
Thu 11:33:08 AM 37.8830 -102.3320 318° Northwest 440 506 36,000  Level FlightAware ADS-B
Thu 11:33:41 AM 37.9320 -102.3880 318° Northwest 439 505 36,000  Level FlightAware ADS-B
Thu 11:34:20 AM 37.9900 -102.4540 318° Northwest 437 503 36,000  Level FlightAware ADS-B
Thu 11:34:53 AM 38.0410 -102.5100 319° Northwest 437 503 36,000  Level FlightAware ADS-B
Thu 11:35:27 AM 38.0940 -102.5700 318° Northwest 437 503 36,000  Level FlightAware ADS-B
Thu 11:36:04 AM 38.1470 -102.6310 318° Northwest 439 505 36,000  Level FlightAware ADS-B
Thu 11:36:34 AM 38.1930 -102.6830 318° Northwest 439 505 36,000  Level FlightAware ADS-B
Thu 11:37:13 AM 38.2510 -102.7480 319° Northwest 441 507 36,000  Level FlightAware ADS-B
Thu 11:37:49 AM 38.3060 -102.8110 318° Northwest 442 509 36,000  Level FlightAware ADS-B
Thu 11:38:27 AM 38.3660 -102.8780 319° Northwest 444 511 36,000  Level FlightAware ADS-B
Thu 11:38:58 AM 38.4120 -102.9300 318° Northwest 444 511 36,000  Level FlightAware ADS-B
Thu 11:39:32 AM 38.4630 -102.9880 318° Northwest 444 511 36,000  Level FlightAware ADS-B
Thu 11:40:10 AM 38.5260 -103.0590 319° Northwest 444 511 36,000  Level FlightAware ADS-B
Thu 11:40:39 AM 38.5670 -103.1060 318° Northwest 444 511 36,000  Level FlightAware ADS-B
Thu 11:41:21 AM 38.6340 -103.1820 318° Northwest 444 511 36,000  Level FlightAware ADS-B
Thu 11:41:54 AM 38.6840 -103.2380 319° Northwest 444 511 36,000  Level FlightAware ADS-B
Thu 11:42:28 AM 38.7350 -103.2950 319° Northwest 446 513 36,000  Level FlightAware ADS-B
Thu 11:43:03 AM 38.7900 -103.3570 319° Northwest 447 514 36,000  Level FlightAware ADS-B
Thu 11:43:41 AM 38.8490 -103.4230 319° Northwest 447 514 36,000  Level FlightAware ADS-B
Thu 11:44:12 AM 38.8930 -103.4830 313° West 435 501 36,000  Level FlightAware ADS-B
Thu 11:44:51 AM 38.9380 -103.5670 305° West 431 496 36,000  Level FlightAware ADS-B
Thu 11:45:24 AM 38.9740 -103.6370 304° West 433 498 36,000  Level FlightAware ADS-B
Thu 11:45:58 AM 39.0140 -103.7110 305° West 435 501 36,000  Level FlightAware ADS-B
Thu 11:46:33 AM 39.0520 -103.7830 304° West 434 499 36,000  Level FlightAware ADS-B
Thu 11:47:11 AM 39.0960 -103.8650 305° West 432 497 36,000  Level FlightAware ADS-B
Thu 11:47:42 AM 39.1300 -103.9290 304° West 431 496 36,000  Level FlightAware ADS-B
Thu 11:48:25 AM 39.1780 -104.0220 304° West 431 496 36,000  Level FlightAware ADS-B
Thu 11:49:02 AM 39.2190 -104.1000 304° West 430 495 36,000  Level FlightAware ADS-B
Thu 11:49:34 AM 39.2550 -104.1700 304° West 430 495 36,000  Level FlightAware ADS-B
Thu 11:50:11 AM 39.2930 -104.2430 304° West 431 496 36,000  Level FlightAware ADS-B
Thu 11:50:45 AM 39.3320 -104.3180 304° West 432 497 36,000  Level FlightAware ADS-B
Thu 11:51:21 AM 39.3730 -104.3970 304° West 433 498 36,000  Level FlightAware ADS-B
Thu 11:51:59 AM 39.4150 -104.4780 304° West 434 499 36,000  Level FlightAware ADS-B
Thu 11:52:30 AM 39.4500 -104.5480 303° West 436 502 36,000  Level FlightAware ADS-B
Thu 11:53:07 AM 39.4910 -104.6280 304° West 440 506 36,000  Level FlightAware ADS-B
Thu 11:53:43 AM 39.5310 -104.7050 304° West 442 509 36,000  Level FlightAware ADS-B
Thu 11:54:19 AM 39.5680 -104.7770 304° West 444 511 36,000  Level FlightAware ADS-B
Thu 11:54:51 AM 39.6090 -104.8570 304° West 444 511 36,000  Level FlightAware ADS-B
Thu 11:55:25 AM 39.6460 -104.9310 303° West 442 509 36,000  Level FlightAware ADS-B
Thu 11:56:03 AM 39.6890 -105.0150 304° West 443 510 36,000  Level FlightAware ADS-B
Thu 11:56:38 AM 39.7280 -105.0920 303° West 445 512 36,000  Level FlightAware ADS-B
Thu 11:57:11 AM 39.7660 -105.1680 303° West 448 516 36,000  Level FlightAware ADS-B
Thu 11:57:45 AM 39.8040 -105.2440 303° West 449 517 36,000  Level FlightAware ADS-B
Thu 11:58:20 AM 39.8430 -105.3200 304° West 447 514 36,000  Level FlightAware ADS-B
Thu 11:58:57 AM 39.8850 -105.4040 303° West 444 511 36,000  Level FlightAware ADS-B
Thu 11:59:33 AM 39.9260 -105.4870 303° West 445 512 36,000  Level FlightAware ADS-B
Thu 12:00:07 PM 39.9640 -105.5630 303° West 449 517 36,000  Level FlightAware ADS-B
Thu 12:00:43 PM 40.0050 -105.6460 303° West 452 520 36,000  Level FlightAware ADS-B
Thu 12:01:17 PM 40.0430 -105.7220 303° West 455 524 36,000  Level FlightAware ADS-B
Thu 12:01:51 PM 40.0820 -105.8000 303° West 454 522 36,000  Level FlightAware ADS-B
Thu 12:02:28 PM 40.1260 -105.8890 303° West 452 520 36,000  Level FlightAware ADS-B
Thu 12:03:01 PM 40.1600 -105.9590 302° West 450 518 36,000  Level FlightAware ADS-B
Thu 12:03:36 PM 40.2010 -106.0430 303° West 447 514 36,000  Level FlightAware ADS-B
Thu 12:04:12 PM 40.2410 -106.1240 303° West 444 511 36,000  Level FlightAware ADS-B
Thu 12:04:44 PM 40.2770 -106.1970 303° West 446 513 36,000  Level FlightAware ADS-B
Thu 12:05:22 PM 40.3180 -106.2820 302° West 450 518 36,000  Level FlightAware ADS-B
Thu 12:06:11 PM 40.3640 -106.3780 302° West 450 518 36,000  Level FlightAware ADS-B
Thu 12:06:45 PM 40.4120 -106.4760 303° West 454 522 36,000  Level FlightAware ADS-B
Thu 12:07:18 PM 40.4490 -106.5520 303° West 455 524 36,000  Level FlightAware ADS-B
Thu 12:07:55 PM 40.4910 -106.6390 302° West 456 525 36,000  Level FlightAware ADS-B
Thu 12:08:32 PM 40.5320 -106.7250 302° West 456 525 36,000  Level FlightAware ADS-B
Thu 12:09:04 PM 40.5680 -106.8020 302° West 460 529 36,000  Level FlightAware ADS-B
Thu 12:09:40 PM 40.6090 -106.8860 303° West 461 531 36,000  Level FlightAware ADS-B
Thu 12:10:14 PM 40.6490 -106.9690 302° West 463 533 36,000  Level FlightAware ADS-B
Thu 12:10:47 PM 40.6850 -107.0470 301° West 465 535 36,000  Level FlightAware ADS-B
Thu 12:11:34 PM 40.7300 -107.1430 302° West 466 536 36,000  Level FlightAware ADS-B
Thu 12:12:07 PM 40.7770 -107.2400 303° West 467 537 36,000  Level FlightAware ADS-B
Thu 12:12:12 PM 40.7780 -107.2422 300° West 467 537 36,000  Level FlightAware ADS-B (KGUC)
Thu 12:12:45 PM 40.8200 -107.3300 302° West 465 535 36,000  Level FlightAware ADS-B
Thu 12:13:25 PM 40.8650 -107.4280 301° West 464 534 36,000  Level FlightAware ADS-B
Thu 12:14:01 PM 40.9060 -107.5150 302° West 465 535 36,000  Level FlightAware ADS-B
Thu 12:14:36 PM 40.9450 -107.5980 302° West 467 537 36,000  Level FlightAware ADS-B
Thu 12:15:11 PM 40.9850 -107.6850 301° West 468 539 36,000  Level FlightAware ADS-B
Thu 12:15:46 PM 41.0230 -107.7680 301° West 467 537 36,000  Level FlightAware ADS-B
Thu 12:16:19 PM 41.0610 -107.8490 302° West 467 537 36,000  Level FlightAware ADS-B
Thu 12:16:57 PM 41.1040 -107.9420 302° West 465 535 36,000  Level FlightAware ADS-B
Thu 12:17:29 PM 41.1400 -108.0190 302° West 460 529 36,000  Level FlightAware ADS-B
Thu 12:18:03 PM 41.1770 -108.1000 301° West 459 528 36,000  Level FlightAware ADS-B
Thu 12:18:40 PM 41.2180 -108.1890 302° West 459 528 36,000  Level FlightAware ADS-B
Thu 12:19:15 PM 41.2560 -108.2730 301° West 457 526 36,000  Level FlightAware ADS-B
Thu 12:19:49 PM 41.2940 -108.3550 302° West 455 524 36,000  Level FlightAware ADS-B
Thu 12:20:19 PM 41.3260 -108.4280 300° West 454 522 36,000  Level FlightAware ADS-B
Thu 12:21:02 PM 41.3720 -108.5290 301° West 452 520 36,000  Level FlightAware ADS-B
Thu 12:21:35 PM 41.4080 -108.6080 301° West 452 520 36,000  Level FlightAware ADS-B
Thu 12:22:11 PM 41.4470 -108.6940 301° West 455 524 36,000  Level FlightAware ADS-B
Thu 12:22:47 PM 41.4860 -108.7810 301° West 457 526 36,000  Level FlightAware ADS-B
Thu 12:23:17 PM 41.5180 -108.8530 301° West 457 526 36,000  Level FlightAware ADS-B
Thu 12:23:50 PM 41.5530 -108.9330 300° West 458 527 36,000  Level FlightAware ADS-B
Thu 12:24:31 PM 41.5990 -109.0340 301° West 467 537 36,000  Level FlightAware ADS-B
Thu 12:25:05 PM 41.6400 -109.1170 303° West 468 539 36,000  Level FlightAware ADS-B
Thu 12:25:39 PM 41.6790 -109.1960 303° West 468 539 36,000  Level FlightAware ADS-B
Thu 12:26:14 PM 41.7200 -109.2790 304° West 467 537 36,000  Level FlightAware ADS-B
Thu 12:26:47 PM 41.7610 -109.3620 304° West 468 539 36,000  Level FlightAware ADS-B
Thu 12:27:25 PM 41.8060 -109.4530 304° West 467 537 36,000  Level FlightAware ADS-B
Thu 12:27:57 PM 41.8440 -109.5310 303° West 466 536 36,000  Level FlightAware ADS-B
Thu 12:28:37 PM 41.8840 -109.6140 303° West 466 536 36,000  Level FlightAware ADS-B
Thu 12:29:11 PM 41.9180 -109.6840 303° West 466 536 36,000  Level FlightAware ADS-B
Thu 12:29:47 PM 41.9540 -109.7580 303° West 466 536 36,000  Level FlightAware ADS-B
Thu 12:30:23 PM 41.9900 -109.8330 303° West 466 536 36,000  Level FlightAware ADS-B
Thu 12:31:00 PM 42.0270 -109.9090 303° West 466 536 36,000  Level FlightAware ADS-B
Thu 12:31:38 PM 42.0650 -109.9880 303° West 466 536 36,000  Level FlightAware ADS-B
Thu 12:32:14 PM 42.1010 -110.0630 303° West 466 536 36,000  Level FlightAware ADS-B
Thu 12:32:50 PM 42.1370 -110.1370 303° West 466 536 36,000  Level FlightAware ADS-B
Thu 12:33:26 PM 42.1720 -110.2120 302° West 466 536 36,000  Level FlightAware ADS-B
Thu 12:34:12 PM 42.2180 -110.3070 303° West 466 536 36,000  Level FlightAware ADS-B
Thu 12:34:50 PM 42.2560 -110.3860 303° West 466 536 36,000  Level FlightAware ADS-B
Thu 12:35:27 PM 42.2930 -110.4630 303° West 466 536 36,000  Level FlightAware ADS-B
Thu 12:36:03 PM 42.3290 -110.5380 303° West 466 536 36,000  Level FlightAware ADS-B
Thu 12:36:39 PM 42.3650 -110.6130 303° West 466 536 36,000  Level FlightAware ADS-B
Thu 12:37:15 PM 42.4010 -110.6880 303° West 466 536 36,000  Level FlightAware ADS-B
Thu 12:37:51 PM 42.4370 -110.7630 303° West 466 536 36,000  Level FlightAware ADS-B
Thu 12:40:53 PM 42.7514 -111.4510 302° West 468 539 36,000  Level FlightAware ADS-B
Thu 12:42:05 PM 42.8333 -111.6310 302° West 463 533 36,000  Level FlightAware ADS-B
Thu 12:42:35 PM 42.8671 -111.7060 302° West 463 533 36,000  Level FlightAware ADS-B
Thu 12:43:11 PM 42.9068 -111.7930 302° West 463 533 36,000  Level FlightAware ADS-B
Thu 12:43:41 PM 42.9409 -111.8690 302° West 463 533 36,000  Level FlightAware ADS-B
Thu 12:44:12 PM 42.9755 -111.9460 302° West 464 534 36,000  Level FlightAware ADS-B
Thu 12:44:45 PM 43.0122 -112.0270 302° West 464 534 36,000  Level FlightAware ADS-B
Thu 12:45:32 PM 43.0654 -112.1460 301° West 464 534 36,000  Level FlightAware ADS-B
Thu 12:46:19 PM 43.1178 -112.2630 302° West 465 535 36,000  Level FlightAware ADS-B
Thu 12:46:54 PM 43.1575 -112.3510 302° West 465 535 36,000  Level FlightAware ADS-B
Thu 12:48:05 PM 43.2359 -112.5270 301° West 463 533 36,000  Level FlightAware ADS-B
Thu 12:52:09 PM 43.4990 -113.1280 301° West 455 524 36,000  Level FlightAware ADS-B
Thu 12:52:40 PM 43.5340 -113.2080 301° West 455 524 36,000  Level FlightAware ADS-B
Thu 12:53:12 PM 43.5687 -113.2880 301° West 455 524 36,000  Level FlightAware ADS-B
Thu 12:53:55 PM 43.6140 -113.3920 301° West 447 514 36,000  Level FlightAware ADS-B
Thu 12:54:13 PM 43.6329 -113.4370 300° West 454 522 36,000  Level FlightAware ADS-B
Thu 12:55:01 PM 43.6832 -113.5540 301° West 447 514 36,000  Level FlightAware ADS-B
Thu 12:55:39 PM 43.7230 -113.6460 301° West 446 513 36,000  Level FlightAware ADS-B
Thu 12:55:49 PM 43.7336 -113.6720 299° West 446 513 36,000  Level FlightAware ADS-B
Thu 12:56:51 PM 43.7990 -113.8250 301° West 444 511 36,000  Level FlightAware ADS-B
Thu 12:57:23 PM 43.8310 -113.9020 300° West 442 509 36,000  Level FlightAware ADS-B
Thu 12:57:59 PM 43.8670 -113.9880 300° West 441 507 36,000  Level FlightAware ADS-B
Thu 12:58:35 PM 43.9030 -114.0730 300° West 438 504 36,000  Level FlightAware ADS-B
Thu 12:59:11 PM 43.9410 -114.1630 300° West 437 503 36,000  Level FlightAware ADS-B
Thu 12:59:41 PM 43.9720 -114.2370 300° West 435 501 36,000  Level FlightAware ADS-B
Thu 01:00:19 PM 44.0100 -114.3280 300° West 435 501 36,000  Level FlightAware ADS-B
Thu 01:00:53 PM 44.0450 -114.4110 300° West 434 499 36,000  Level FlightAware ADS-B
Thu 01:01:27 PM 44.0780 -114.4930 299° West 434 499 36,000  Level FlightAware ADS-B
Thu 01:02:01 PM 44.1120 -114.5740 300° West 433 498 36,000  Level FlightAware ADS-B
Thu 01:02:41 PM 44.1520 -114.6710 300° West 433 498 36,000  Level FlightAware ADS-B
Thu 01:03:15 PM 44.1850 -114.7520 300° West 434 499 36,000  Level FlightAware ADS-B
Thu 01:03:51 PM 44.2210 -114.8390 300° West 433 498 36,000  Level FlightAware ADS-B
Thu 01:04:23 PM 44.2530 -114.9170 300° West 434 499 36,000  Level FlightAware ADS-B
Thu 01:04:57 PM 44.2860 -115.0000 299° West 434 499 36,000  Level FlightAware ADS-B
Thu 01:05:31 PM 44.3200 -115.0830 300° West 436 502 36,000  Level FlightAware ADS-B
Thu 01:06:08 PM 44.3560 -115.1720 300° West 438 504 36,000  Level FlightAware ADS-B
Thu 01:06:43 PM 44.3930 -115.2620 300° West 440 506 36,000  Level FlightAware ADS-B
Thu 01:07:19 PM 44.4280 -115.3500 299° West 441 507 36,000  Level FlightAware ADS-B
Thu 01:07:56 PM 44.4650 -115.4400 300° West 440 506 36,000  Level FlightAware ADS-B
Thu 01:08:28 PM 44.4970 -115.5200 299° West 436 502 36,000  Level FlightAware ADS-B
Thu 01:09:06 PM 44.5330 -115.6120 299° West 432 497 36,000  Level FlightAware ADS-B
Thu 01:09:39 PM 44.5650 -115.6920 299° West 432 497 36,000  Level FlightAware ADS-B
Thu 01:10:15 PM 44.6000 -115.7820 299° West 433 498 36,000  Level FlightAware ADS-B
Thu 01:10:47 PM 44.6320 -115.8600 300° West 434 499 36,000  Level FlightAware ADS-B
Thu 01:11:32 PM 44.6690 -115.9550 299° West 436 502 36,000  Level FlightAware ADS-B
Thu 01:12:01 PM 44.7040 -116.0460 298° West 438 504 36,000  Level FlightAware ADS-B
Thu 01:12:42 PM 44.7430 -116.1460 299° West 439 505 36,000  Level FlightAware ADS-B
Thu 01:13:17 PM 44.7780 -116.2350 299° West 439 505 36,000  Level FlightAware ADS-B
Thu 01:13:49 PM 44.8070 -116.3160 297° West 441 507 36,000  Level FlightAware ADS-B
Thu 01:14:27 PM 44.8390 -116.4160 294° West 442 509 36,000  Level FlightAware ADS-B
Thu 01:15:03 PM 44.8580 -116.5170 285° West 444 511 36,000  Level FlightAware ADS-B
Thu 01:15:35 PM 44.8740 -116.6030 285° West 444 511 36,000  Level FlightAware ADS-B
Thu 01:16:07 PM 44.8920 -116.6950 285° West 444 511 36,000  Level FlightAware ADS-B
Thu 01:16:47 PM 44.9130 -116.8070 285° West 446 513 36,000  Level FlightAware ADS-B
Thu 01:17:19 PM 44.9290 -116.8960 284° West 447 514 36,000  Level FlightAware ADS-B
Thu 01:17:57 PM 44.9490 -117.0030 285° West 448 516 36,000  Level FlightAware ADS-B
Thu 01:18:31 PM 44.9660 -117.0980 284° West 447 514 36,000  Level FlightAware ADS-B
Thu 01:19:04 PM 44.9830 -117.1910 285° West 448 516 36,000  Level FlightAware ADS-B
Thu 01:19:39 PM 45.0010 -117.2910 284° West 447 514 36,000  Level FlightAware ADS-B
Thu 01:20:17 PM 45.0200 -117.3960 284° West 445 512 36,000  Level FlightAware ADS-B
Thu 01:20:51 PM 45.0380 -117.4920 285° West 443 510 36,000  Level FlightAware ADS-B
Thu 01:21:25 PM 45.0550 -117.5900 284° West 443 510 36,000  Level FlightAware ADS-B
Thu 01:21:59 PM 45.0720 -117.6840 284° West 442 509 36,000  Level FlightAware ADS-B
Thu 01:22:35 PM 45.0890 -117.7850 283° West 441 507 36,000  Level FlightAware ADS-B
Thu 01:23:11 PM 45.1060 -117.8820 284° West 440 506 36,000  Level FlightAware ADS-B
Thu 01:23:47 PM 45.1240 -117.9860 284° West 440 506 36,000  Level FlightAware ADS-B
Thu 01:24:23 PM 45.1410 -118.0850 284° West 438 504 36,000  Level FlightAware ADS-B
Thu 01:24:55 PM 45.1570 -118.1750 284° West 437 503 36,000  Level FlightAware ADS-B
Thu 01:25:31 PM 45.1740 -118.2750 284° West 436 502 36,000  Level FlightAware ADS-B
Thu 01:26:07 PM 45.1910 -118.3740 284° West 434 499 36,000  Level FlightAware ADS-B
Thu 01:26:41 PM 45.2070 -118.4700 283° West 433 498 36,000  Level FlightAware ADS-B
Thu 01:27:10 PM 45.2200 -118.5470 284° West 432 497 36,000  Level FlightAware ADS-B
Thu 01:28:04 PM 45.2450 -118.6970 283° West 431 496 36,000  Level FlightAware ADS-B
Thu 01:28:40 PM 45.2560 -118.7990 279° West 430 495 36,000  Level FlightAware ADS-B
Thu 01:29:12 PM 45.2660 -118.8850 279° West 430 495 36,000  Level FlightAware ADS-B
Thu 01:29:48 PM 45.2760 -118.9880 278° West 430 495 36,000  Level FlightAware ADS-B
Thu 01:30:24 PM 45.2870 -119.0870 279° West 431 496 36,000  Level FlightAware ADS-B
Thu 01:31:00 PM 45.2970 -119.1890 278° West 431 496 36,000  Level FlightAware ADS-B
Thu 01:31:36 PM 45.3080 -119.2880 279° West 431 496 36,000  Level FlightAware ADS-B
Thu 01:32:09 PM 45.3170 -119.3810 278° West 431 496 36,000  Level FlightAware ADS-B
Thu 01:32:42 PM 45.3260 -119.4730 278° West 429 494 36,000  Level FlightAware ADS-B
Thu 01:33:19 PM 45.3370 -119.5750 279° West 428 493 36,000  Level FlightAware ADS-B
Thu 01:33:52 PM 45.3460 -119.6670 278° West 427 491 36,000  Level FlightAware ADS-B
Thu 01:34:38 PM 45.3560 -119.7810 277° West 426 490 36,000  Level FlightAware ADS-B
Thu 01:35:08 PM 45.3660 -119.8770 278° West 425 489 36,000  Level FlightAware ADS-B
Thu 01:35:48 PM 45.3770 -119.9900 278° West 424 488 36,000  Level FlightAware ADS-B
Thu 01:36:19 PM 45.3850 -120.0710 278° West 424 488 36,000  Level FlightAware ADS-B
Thu 01:36:56 PM 45.3920 -120.1580 277° West 424 488 36,000  Level FlightAware ADS-B
Thu 01:37:32 PM 45.4000 -120.2430 278° West 424 488 36,000  Level FlightAware ADS-B
Thu 01:38:08 PM 45.4070 -120.3280 277° West 424 488 36,000  Level FlightAware ADS-B
Thu 01:38:44 PM 45.4140 -120.4130 277° West 424 488 36,000  Level FlightAware ADS-B
Thu 01:39:21 PM 45.4220 -120.5000 277° West 424 488 36,000  Level FlightAware ADS-B
Thu 01:39:58 PM 45.4290 -120.5880 276° West 424 488 36,000  Level FlightAware ADS-B
Thu 01:40:35 PM 45.4370 -120.6750 277° West 424 488 36,000  Level FlightAware ADS-B
Thu 01:41:12 PM 45.4440 -120.7620 277° West 424 488 36,000  Level FlightAware ADS-B
Thu 01:41:47 PM 45.4510 -120.8450 277° West 424 488 36,000  Level FlightAware ADS-B
Thu 01:42:23 PM 45.4590 -120.9300 278° West 424 488 36,000  Level FlightAware ADS-B
Thu 01:43:00 PM 45.4660 -121.0170 277° West 424 488 36,000  Level FlightAware ADS-B
Thu 01:43:36 PM 45.4740 -121.1020 278° West 424 488 36,000 -19,957 Level FlightAware ADS-B
Thu 01:43:46 PM 45.4906 -121.2430 280° West 355 409 20,700 -24,600 Descending FlightAware ADS-B
Thu 01:44:16 PM 45.4965 -121.3130 277° West 350 403 19,600 -1,967 Descending FlightAware ADS-B
Thu 01:44:47 PM 45.5021 -121.3810 277° West 342 394 18,700 -1,869 Descending FlightAware ADS-B
Thu 01:45:17 PM 45.5076 -121.4480 277° West 338 389 17,700 -1,714 Descending FlightAware ADS-B
Thu 01:46:39 PM 45.5194 -121.6003 277° West 334 384 15,500 -1,605 Descending Seattle Center
Thu 01:46:43 PM 45.5206 -121.6306 273° West 330 380 15,400 -492 Descending Seattle Center
Thu 01:47:40 PM 45.5292 -121.7214 278° West 313 360 15,000 -400 Descending Seattle Center
Thu 01:47:43 PM 45.5297 -121.7472 272° West 294 338 15,000  Level Seattle Center
Thu 01:48:45 PM 45.5350 -121.8656 274° West 291 335 15,000 -353 Level Seattle Center
Thu 01:49:42 PM 45.5383 -121.9553 273° West 295 339 14,300 -900 Descending Seattle Center
Thu 01:49:45 PM 45.5414 -121.9803 280° West 291 335 14,100 -1,672 Descending Seattle Center
Thu 01:50:43 PM 45.5653 -122.0833 288° West 282 325 12,600 -1,574 Descending Seattle Center
Thu 01:50:46 PM 45.5650 -122.0939 268° West 282 325 12,500 -1,475 Descending Seattle Center
Thu 01:51:44 PM 45.5861 -122.1897 288° West 279 321 11,100 -1,377 Descending Seattle Center
Thu 01:51:47 PM 45.5886 -122.1986 292° West 279 321 11,100 -1,406 Level Seattle Center
Thu 01:52:48 PM 45.6103 -122.3039 286° West 273 314 9,600 -1,450 Descending Seattle Center
Thu 01:53:47 PM 45.6297 -122.3958 287° West 271 312 8,200 -1,475 Descending Seattle Center
Thu 01:53:49 PM 45.6311 -122.4064 281° West 270 311 8,100 -1,279 Descending Seattle Center
Thu 01:54:48 PM 45.6522 -122.4981 288° West 272 313 6,900 -1,400 Descending Seattle Center
Thu 01:54:49 PM 45.6567 -122.5103 297° West 259 298 6,700 -1,180 Descending Seattle Center
Thu 01:55:49 PM 45.6872 -122.5844 301° West 256 295 5,700 -1,180 Descending Seattle Center
Thu 01:55:50 PM 45.6892 -122.5961 283° West 244 281 5,500 -581 Descending Seattle Center
Thu 01:56:51 PM 45.7142 -122.6786 293° West 220 253 5,100 -248 Descending Seattle Center
Thu 01:57:51 PM 45.7336 -122.7456 293° West 221 254 5,000 -98 Descending Seattle Center
Thu 01:57:52 PM 45.7331 -122.7511 262° West 188 216 5,000  Level Seattle Center
Thu 01:58:52 PM 45.7517 -122.8144 293° West 200 230 5,000  Level Seattle Center
Thu 01:58:53 PM 45.7533 -122.8203 292° West 189 217 5,000 -492 Level Seattle Center
Thu 01:59:53 PM 45.7442 -122.8789 257° West 201 231 4,500 -793 Descending Seattle Center
Thu 02:00:54 PM 45.6914 -122.8456 156° South 180 207 3,400 -1,065 Descending Seattle Center
Thu 02:00:55 PM 45.6914 -122.8464 270° West 180 207 3,400 -492 Level Seattle Center
Thu 02:01:55 PM 45.6675 -122.7808 118° Southeast 179 206 2,900 -492 Descending Seattle Center
Thu 02:01:56 PM 45.6681 -122.7828 292° West 182 209 2,900 -871 Level Seattle Center
Thu 02:02:57 PM 45.6447 -122.7217 119° Southeast 179 206 2,000 -893 Descending Seattle Center
Thu 02:03:57 PM 45.6206 -122.6642 121° Southeast 156 180 1,100 -885 Descending Seattle Center
Thu 02:03:58 PM 45.6214 -122.6619 62° Northeast 176 203 1,100 -800 Level Seattle Center
Thu 02:04:57 PM 45.6022 -122.6161 121° Southeast 139 160 300 -590 Descending Seattle Center
Thu 02:04:59 PM 45.5997 -122.6061 110° East 168 193 500 6,000 Climbing Seattle Center

Login

Don't have an account? Register now (free) for customized features, flight alerts, and more!